sensor_id;sensor_type;location;lat;lon;timestamp;pressure;altitude;pressure_sealevel;temperature;humidity
41246;BME280;53880;47.526;18.986;2023-03-31T00:00:10;99333.31;;;21.77;55.57
41246;BME280;53880;47.526;18.986;2023-03-31T00:02:49;99333.53;;;21.75;55.48
41246;BME280;53880;47.526;18.986;2023-03-31T00:05:08;99335.72;;;21.72;55.94
41246;BME280;53880;47.526;18.986;2023-03-31T00:07:24;99341.81;;;21.80;55.70
41246;BME280;53880;47.526;18.986;2023-03-31T00:09:39;99346.13;;;21.89;55.61
41246;BME280;53880;47.526;18.986;2023-03-31T00:11:56;99337.19;;;21.97;55.31
41246;BME280;53880;47.526;18.986;2023-03-31T00:14:11;99321.91;;;21.97;55.25
41246;BME280;53880;47.526;18.986;2023-03-31T00:16:26;99317.13;;;21.93;55.05
41246;BME280;53880;47.526;18.986;2023-03-31T00:18:41;99319.69;;;21.86;54.91
41246;BME280;53880;47.526;18.986;2023-03-31T00:21:13;99316.03;;;21.79;54.91
41246;BME280;53880;47.526;18.986;2023-03-31T00:23:38;99321.94;;;21.75;54.97
41246;BME280;53880;47.526;18.986;2023-03-31T00:25:54;99323.34;;;21.71;55.34
41246;BME280;53880;47.526;18.986;2023-03-31T00:28:09;99319.38;;;21.67;55.23
41246;BME280;53880;47.526;18.986;2023-03-31T00:30:24;99320.56;;;21.64;55.33
41246;BME280;53880;47.526;18.986;2023-03-31T00:32:41;99320.09;;;21.61;55.07
41246;BME280;53880;47.526;18.986;2023-03-31T00:34:56;99316.09;;;21.57;55.11
41246;BME280;53880;47.526;18.986;2023-03-31T00:37:13;99319.78;;;21.56;55.20
41246;BME280;53880;47.526;18.986;2023-03-31T00:39:31;99316.63;;;21.52;55.13
41246;BME280;53880;47.526;18.986;2023-03-31T00:41:50;99325.06;;;21.49;55.28
41246;BME280;53880;47.526;18.986;2023-03-31T00:46:29;99325.59;;;21.45;55.12
41246;BME280;53880;47.526;18.986;2023-03-31T00:48:56;99321.41;;;21.42;55.26
41246;BME280;53880;47.526;18.986;2023-03-31T00:51:12;99314.56;;;21.40;55.35
41246;BME280;53880;47.526;18.986;2023-03-31T00:53:31;99318.44;;;21.37;55.13
41246;BME280;53880;47.526;18.986;2023-03-31T00:55:52;99313.28;;;21.36;55.33
41246;BME280;53880;47.526;18.986;2023-03-31T00:58:11;99313.66;;;21.33;55.20
41246;BME280;53880;47.526;18.986;2023-03-31T01:00:28;99311.13;;;21.31;55.28
41246;BME280;53880;47.526;18.986;2023-03-31T01:02:52;99305.13;;;21.29;55.22
41246;BME280;53880;47.526;18.986;2023-03-31T01:05:09;99307.97;;;21.27;55.21
41246;BME280;53880;47.526;18.986;2023-03-31T01:07:37;99303.81;;;21.25;55.27
41246;BME280;53880;47.526;18.986;2023-03-31T01:09:59;99304.84;;;21.24;55.22
41246;BME280;53880;47.526;18.986;2023-03-31T01:12:17;99300.69;;;21.21;55.26
41246;BME280;53880;47.526;18.986;2023-03-31T01:14:35;99292.00;;;21.19;55.44
41246;BME280;53880;47.526;18.986;2023-03-31T01:16:50;99284.31;;;21.16;55.20
41246;BME280;53880;47.526;18.986;2023-03-31T01:19:42;99287.16;;;21.15;55.22
41246;BME280;53880;47.526;18.986;2023-03-31T01:22:23;99283.84;;;21.13;55.36
41246;BME280;53880;47.526;18.986;2023-03-31T01:25:25;99289.34;;;21.11;55.26
41246;BME280;53880;47.526;18.986;2023-03-31T01:33:09;99289.88;;;21.07;55.42
41246;BME280;53880;47.526;18.986;2023-03-31T01:47:09;99300.81;;;20.97;55.47
41246;BME280;53880;47.526;18.986;2023-03-31T01:49:38;99305.34;;;20.97;55.66
41246;BME280;53880;47.526;18.986;2023-03-31T01:52:07;99303.84;;;20.94;55.58
41246;BME280;53880;47.526;18.986;2023-03-31T01:54:49;99303.84;;;20.94;55.66
41246;BME280;53880;47.526;18.986;2023-03-31T01:57:38;99306.91;;;20.91;55.60
41246;BME280;53880;47.526;18.986;2023-03-31T02:00:09;99306.06;;;20.91;55.47
41246;BME280;53880;47.526;18.986;2023-03-31T02:02:37;99296.34;;;20.90;55.56
41246;BME280;53880;47.526;18.986;2023-03-31T02:05:06;99302.72;;;20.89;55.50
41246;BME280;53880;47.526;18.986;2023-03-31T02:07:32;99304.94;;;20.85;55.40
41246;BME280;53880;47.526;18.986;2023-03-31T02:09:57;99296.06;;;20.85;55.43
41246;BME280;53880;47.526;18.986;2023-03-31T02:12:16;99299.75;;;20.84;55.74
41246;BME280;53880;47.526;18.986;2023-03-31T02:14:38;99301.75;;;20.82;55.73
41246;BME280;53880;47.526;18.986;2023-03-31T02:16:58;99295.75;;;20.80;55.59
41246;BME280;53880;47.526;18.986;2023-03-31T02:19:19;99293.06;;;20.80;55.45
41246;BME280;53880;47.526;18.986;2023-03-31T02:21:38;99286.06;;;20.79;55.51
41246;BME280;53880;47.526;18.986;2023-03-31T02:23:55;99281.72;;;20.78;55.49
41246;BME280;53880;47.526;18.986;2023-03-31T02:26:27;99287.25;;;20.76;55.59
41246;BME280;53880;47.526;18.986;2023-03-31T02:28:45;99282.06;;;20.75;55.58
41246;BME280;53880;47.526;18.986;2023-03-31T02:33:55;99284.25;;;20.71;55.67
41246;BME280;53880;47.526;18.986;2023-03-31T02:36:10;99276.41;;;20.70;55.64
41246;BME280;53880;47.526;18.986;2023-03-31T02:38:30;99278.25;;;20.69;55.80
41246;BME280;53880;47.526;18.986;2023-03-31T02:40:46;99277.25;;;20.70;55.84
41246;BME280;53880;47.526;18.986;2023-03-31T02:43:02;99273.91;;;20.68;55.57
41246;BME280;53880;47.526;18.986;2023-03-31T02:45:46;99271.22;;;20.68;55.68
41246;BME280;53880;47.526;18.986;2023-03-31T02:48:06;99268.72;;;20.67;55.63
41246;BME280;53880;47.526;18.986;2023-03-31T02:50:33;99263.56;;;20.65;55.81
41246;BME280;53880;47.526;18.986;2023-03-31T02:53:22;99265.59;;;20.63;55.80
41246;BME280;53880;47.526;18.986;2023-03-31T02:59:02;99263.09;;;20.62;55.64
41246;BME280;53880;47.526;18.986;2023-03-31T03:01:52;99261.41;;;20.61;55.81
41246;BME280;53880;47.526;18.986;2023-03-31T03:07:12;99275.00;;;20.59;55.63
41246;BME280;53880;47.526;18.986;2023-03-31T03:14:54;99261.09;;;20.56;55.68
41246;BME280;53880;47.526;18.986;2023-03-31T03:17:48;99255.09;;;20.53;55.69
41246;BME280;53880;47.526;18.986;2023-03-31T03:20:05;99255.09;;;20.53;55.95
41246;BME280;53880;47.526;18.986;2023-03-31T03:22:24;99255.28;;;20.52;55.79
41246;BME280;53880;47.526;18.986;2023-03-31T03:24:40;99252.59;;;20.52;55.97
41246;BME280;53880;47.526;18.986;2023-03-31T03:26:56;99250.13;;;20.50;55.69
41246;BME280;53880;47.526;18.986;2023-03-31T03:29:12;99253.78;;;20.49;55.90
41246;BME280;53880;47.526;18.986;2023-03-31T03:31:28;99256.47;;;20.49;55.78
41246;BME280;53880;47.526;18.986;2023-03-31T03:33:44;99264.69;;;20.48;55.71
41246;BME280;53880;47.526;18.986;2023-03-31T03:36:00;99258.47;;;20.47;55.76
41246;BME280;53880;47.526;18.986;2023-03-31T03:38:15;99257.66;;;20.47;55.68
41246;BME280;53880;47.526;18.986;2023-03-31T03:40:30;99257.00;;;20.45;55.92
41246;BME280;53880;47.526;18.986;2023-03-31T03:42:45;99258.81;;;20.44;55.90
41246;BME280;53880;47.526;18.986;2023-03-31T03:45:01;99256.16;;;20.44;55.88
41246;BME280;53880;47.526;18.986;2023-03-31T03:47:18;99261.69;;;20.43;55.96
41246;BME280;53880;47.526;18.986;2023-03-31T03:49:33;99261.88;;;20.41;55.84
41246;BME280;53880;47.526;18.986;2023-03-31T03:51:48;99254.69;;;20.42;55.79
41246;BME280;53880;47.526;18.986;2023-03-31T03:54:04;99254.84;;;20.40;56.03
41246;BME280;53880;47.526;18.986;2023-03-31T03:56:19;99252.16;;;20.40;56.06
41246;BME280;53880;47.526;18.986;2023-03-31T03:58:35;99264.88;;;20.38;55.79
41246;BME280;53880;47.526;18.986;2023-03-31T04:00:50;99266.72;;;20.38;55.91
41246;BME280;53880;47.526;18.986;2023-03-31T04:03:05;99272.06;;;20.38;56.01
41246;BME280;53880;47.526;18.986;2023-03-31T04:05:21;99263.22;;;20.37;55.79
41246;BME280;53880;47.526;18.986;2023-03-31T04:07:36;99262.41;;;20.37;56.08
41246;BME280;53880;47.526;18.986;2023-03-31T04:09:51;99269.59;;;20.36;55.79
41246;BME280;53880;47.526;18.986;2023-03-31T04:12:06;99258.03;;;20.36;55.89
41246;BME280;53880;47.526;18.986;2023-03-31T04:14:21;99251.22;;;20.33;55.87
41246;BME280;53880;47.526;18.986;2023-03-31T04:16:36;99253.91;;;20.33;55.92
41246;BME280;53880;47.526;18.986;2023-03-31T04:18:53;99246.88;;;20.32;56.06
41246;BME280;53880;47.526;18.986;2023-03-31T04:21:14;99245.22;;;20.31;56.07
41246;BME280;53880;47.526;18.986;2023-03-31T04:23:38;99252.41;;;20.31;56.04
41246;BME280;53880;47.526;18.986;2023-03-31T04:26:00;99259.59;;;20.30;55.92
41246;BME280;53880;47.526;18.986;2023-03-31T04:28:16;99258.75;;;20.30;55.92
41246;BME280;53880;47.526;18.986;2023-03-31T04:30:32;99271.28;;;20.29;55.93
41246;BME280;53880;47.526;18.986;2023-03-31T04:32:56;99267.78;;;20.29;56.11
41246;BME280;53880;47.526;18.986;2023-03-31T04:35:11;99254.41;;;20.29;55.89
41246;BME280;53880;47.526;18.986;2023-03-31T04:37:29;99263.63;;;20.26;55.79
41246;BME280;53880;47.526;18.986;2023-03-31T04:39:48;99250.25;;;20.26;55.88
41246;BME280;53880;47.526;18.986;2023-03-31T04:42:04;99249.59;;;20.24;55.93
41246;BME280;53880;47.526;18.986;2023-03-31T04:44:19;99250.44;;;20.25;55.89
41246;BME280;53880;47.526;18.986;2023-03-31T04:46:35;99254.94;;;20.24;55.89
41246;BME280;53880;47.526;18.986;2023-03-31T04:48:54;99255.94;;;20.23;56.06
41246;BME280;53880;47.526;18.986;2023-03-31T04:51:10;99255.94;;;20.23;55.74
41246;BME280;53880;47.526;18.986;2023-03-31T04:53:25;99255.28;;;20.21;55.76
41246;BME280;53880;47.526;18.986;2023-03-31T04:55:40;99253.44;;;20.22;55.96
41246;BME280;53880;47.526;18.986;2023-03-31T04:57:55;99245.59;;;20.20;55.92
41246;BME280;53880;47.526;18.986;2023-03-31T05:00:11;99249.09;;;20.21;55.78
41246;BME280;53880;47.526;18.986;2023-03-31T05:02:27;99248.28;;;20.20;55.77
41246;BME280;53880;47.526;18.986;2023-03-31T05:04:42;99247.25;;;20.21;55.67
41246;BME280;53880;47.526;18.986;2023-03-31T05:06:57;99246.91;;;20.24;55.52
41246;BME280;53880;47.526;18.986;2023-03-31T05:09:12;99246.72;;;20.26;55.72
41246;BME280;53880;47.526;18.986;2023-03-31T05:11:27;99236.16;;;20.32;55.46
41246;BME280;53880;47.526;18.986;2023-03-31T05:13:43;99237.28;;;20.38;55.20
41246;BME280;53880;47.526;18.986;2023-03-31T05:16:12;99231.06;;;20.45;55.15
41246;BME280;53880;47.526;18.986;2023-03-31T05:18:30;99233.88;;;20.52;54.99
41246;BME280;53880;47.526;18.986;2023-03-31T05:20:45;99233.81;;;20.60;55.14
41246;BME280;53880;47.526;18.986;2023-03-31T05:23:01;99231.25;;;20.67;55.10
41246;BME280;53880;47.526;18.986;2023-03-31T05:25:16;99226.03;;;20.73;54.92
41246;BME280;53880;47.526;18.986;2023-03-31T05:27:35;99227.81;;;20.81;55.04
41246;BME280;53880;47.526;18.986;2023-03-31T05:29:52;99215.56;;;20.86;54.79
41246;BME280;53880;47.526;18.986;2023-03-31T05:32:07;99215.47;;;20.94;55.10
41246;BME280;53880;47.526;18.986;2023-03-31T05:34:22;99219.13;;;21.01;54.93
41246;BME280;53880;47.526;18.986;2023-03-31T05:36:38;99214.91;;;21.07;55.18
41246;BME280;53880;47.526;18.986;2023-03-31T05:38:55;99214.00;;;21.14;55.28
41246;BME280;53880;47.526;18.986;2023-03-31T05:41:10;99219.66;;;21.19;55.19
41246;BME280;53880;47.526;18.986;2023-03-31T05:43:25;99224.28;;;21.25;55.29
41246;BME280;53880;47.526;18.986;2023-03-31T05:45:41;99230.09;;;21.29;55.21
41246;BME280;53880;47.526;18.986;2023-03-31T05:47:55;99219.03;;;21.32;55.40
41246;BME280;53880;47.526;18.986;2023-03-31T05:50:11;99210.81;;;21.34;55.15
41246;BME280;53880;47.526;18.986;2023-03-31T05:52:28;99207.78;;;21.37;55.00
41246;BME280;53880;47.526;18.986;2023-03-31T05:54:43;99209.41;;;21.38;55.15
41246;BME280;53880;47.526;18.986;2023-03-31T05:56:58;99213.59;;;21.40;54.95
41246;BME280;53880;47.526;18.986;2023-03-31T05:59:14;99213.59;;;21.40;55.17
41246;BME280;53880;47.526;18.986;2023-03-31T06:01:30;99212.75;;;21.40;54.99
41246;BME280;53880;47.526;18.986;2023-03-31T06:03:45;99207.38;;;21.40;54.92
41246;BME280;53880;47.526;18.986;2023-03-31T06:06:04;99206.56;;;21.39;55.18
41246;BME280;53880;47.526;18.986;2023-03-31T06:08:22;99211.94;;;21.39;54.89
41246;BME280;53880;47.526;18.986;2023-03-31T06:10:37;99210.25;;;21.38;55.19
41246;BME280;53880;47.526;18.986;2023-03-31T06:12:57;99205.75;;;21.39;54.93
41246;BME280;53880;47.526;18.986;2023-03-31T06:15:14;99200.38;;;21.39;54.97
41246;BME280;53880;47.526;18.986;2023-03-31T06:17:30;99198.53;;;21.39;54.98
41246;BME280;53880;47.526;18.986;2023-03-31T06:19:45;99201.38;;;21.38;54.75
41246;BME280;53880;47.526;18.986;2023-03-31T06:22:00;99200.53;;;21.37;54.88
41246;BME280;53880;47.526;18.986;2023-03-31T06:24:15;99197.22;;;21.35;54.76
41246;BME280;53880;47.526;18.986;2023-03-31T06:26:30;99206.28;;;21.34;55.08
41246;BME280;53880;47.526;18.986;2023-03-31T06:28:45;99199.44;;;21.32;55.21
41246;BME280;53880;47.526;18.986;2023-03-31T06:31:09;99200.47;;;21.31;55.09
41246;BME280;53880;47.526;18.986;2023-03-31T06:33:26;99202.97;;;21.32;54.99
41246;BME280;53880;47.526;18.986;2023-03-31T06:35:41;99201.94;;;21.33;54.95
41246;BME280;53880;47.526;18.986;2023-03-31T06:37:56;99200.09;;;21.34;55.21
41246;BME280;53880;47.526;18.986;2023-03-31T06:40:12;99192.88;;;21.34;55.22
41246;BME280;53880;47.526;18.986;2023-03-31T06:42:26;99193.88;;;21.33;55.33
41246;BME280;53880;47.526;18.986;2023-03-31T06:44:42;99195.56;;;21.34;55.21
41246;BME280;53880;47.526;18.986;2023-03-31T06:46:57;99190.22;;;21.34;55.38
41246;BME280;53880;47.526;18.986;2023-03-31T06:49:12;99187.72;;;21.33;55.44
41246;BME280;53880;47.526;18.986;2023-03-31T06:51:29;99180.69;;;21.32;55.46
41246;BME280;53880;47.526;18.986;2023-03-31T06:53:45;99185.19;;;21.31;55.43
41246;BME280;53880;47.526;18.986;2023-03-31T06:56:00;99182.53;;;21.31;55.36
41246;BME280;53880;47.526;18.986;2023-03-31T06:58:15;99185.19;;;21.31;55.37
41246;BME280;53880;47.526;18.986;2023-03-31T07:00:31;99188.72;;;21.32;55.25
41246;BME280;53880;47.526;18.986;2023-03-31T07:02:47;99187.88;;;21.31;55.45
41246;BME280;53880;47.526;18.986;2023-03-31T07:05:02;99193.25;;;21.31;55.48
41246;BME280;53880;47.526;18.986;2023-03-31T07:07:18;99190.84;;;21.36;55.80
41246;BME280;53880;47.526;18.986;2023-03-31T07:09:33;99195.47;;;21.42;55.39
41246;BME280;53880;47.526;18.986;2023-03-31T07:11:49;99183.38;;;21.46;55.00
41246;BME280;53880;47.526;18.986;2023-03-31T07:14:04;99186.53;;;21.50;55.16
41246;BME280;53880;47.526;18.986;2023-03-31T07:16:22;99190.50;;;21.54;54.91
41246;BME280;53880;47.526;18.986;2023-03-31T07:18:37;99191.16;;;21.56;54.72
41246;BME280;53880;47.526;18.986;2023-03-31T07:20:56;99179.38;;;21.57;54.65
41246;BME280;53880;47.526;18.986;2023-03-31T07:23:13;99180.44;;;21.56;54.43
41246;BME280;53880;47.526;18.986;2023-03-31T07:25:29;99178.59;;;21.56;54.64
41246;BME280;53880;47.526;18.986;2023-03-31T07:27:44;99179.88;;;21.60;55.57
41246;BME280;53880;47.526;18.986;2023-03-31T07:29:59;99181.53;;;21.61;55.03
41246;BME280;53880;47.526;18.986;2023-03-31T07:32:14;99181.16;;;21.64;55.21
41246;BME280;53880;47.526;18.986;2023-03-31T07:34:31;99174.75;;;21.65;54.45
41246;BME280;53880;47.526;18.986;2023-03-31T07:36:46;99159.31;;;21.67;54.88
41246;BME280;53880;47.526;18.986;2023-03-31T07:39:05;99161.00;;;21.68;54.42
41246;BME280;53880;47.526;18.986;2023-03-31T07:41:21;99152.13;;;21.68;54.23
41246;BME280;53880;47.526;18.986;2023-03-31T07:43:36;99151.13;;;21.69;54.28
41246;BME280;53880;47.526;18.986;2023-03-31T07:45:53;99151.97;;;21.69;54.06
41246;BME280;53880;47.526;18.986;2023-03-31T07:48:09;99151.97;;;21.69;54.18
41246;BME280;53880;47.526;18.986;2023-03-31T07:50:24;99153.78;;;21.69;54.27
41246;BME280;53880;47.526;18.986;2023-03-31T07:52:48;99140.75;;;21.66;54.47
41246;BME280;53880;47.526;18.986;2023-03-31T07:55:04;99145.88;;;21.61;54.17
41246;BME280;53880;47.526;18.986;2023-03-31T07:57:19;99150.19;;;21.62;54.15
41246;BME280;53880;47.526;18.986;2023-03-31T07:59:34;99143.00;;;21.62;54.09
41246;BME280;53880;47.526;18.986;2023-03-31T08:01:50;99141.16;;;21.63;54.14
41246;BME280;53880;47.526;18.986;2023-03-31T08:04:05;99135.78;;;21.63;54.04
41246;BME280;53880;47.526;18.986;2023-03-31T08:06:23;99135.59;;;21.64;54.09
41246;BME280;53880;47.526;18.986;2023-03-31T08:08:38;99138.28;;;21.64;54.15
41246;BME280;53880;47.526;18.986;2023-03-31T08:10:57;99132.06;;;21.64;54.08
41246;BME280;53880;47.526;18.986;2023-03-31T08:13:12;99126.91;;;21.62;54.13
41246;BME280;53880;47.526;18.986;2023-03-31T08:15:28;99127.09;;;21.61;54.20
41246;BME280;53880;47.526;18.986;2023-03-31T08:17:43;99113.50;;;21.62;53.95
41246;BME280;53880;47.526;18.986;2023-03-31T08:19:58;99118.66;;;21.64;54.18
41246;BME280;53880;47.526;18.986;2023-03-31T08:22:13;99113.09;;;21.65;54.23
41246;BME280;53880;47.526;18.986;2023-03-31T08:24:29;99115.16;;;21.63;54.03
41246;BME280;53880;47.526;18.986;2023-03-31T08:26:44;99117.19;;;21.61;54.30
41246;BME280;53880;47.526;18.986;2023-03-31T08:29:00;99114.16;;;21.64;54.26
41246;BME280;53880;47.526;18.986;2023-03-31T08:31:16;99095.81;;;21.68;53.73
41246;BME280;53880;47.526;18.986;2023-03-31T08:33:35;99099.16;;;21.70;53.96
41246;BME280;53880;47.526;18.986;2023-03-31T08:35:51;99097.31;;;21.70;53.67
41246;BME280;53880;47.526;18.986;2023-03-31T08:38:09;99092.16;;;21.69;53.57
41246;BME280;53880;47.526;18.986;2023-03-31T08:40:28;99083.47;;;21.67;53.65
41246;BME280;53880;47.526;18.986;2023-03-31T08:42:53;99085.31;;;21.66;53.65
41246;BME280;53880;47.526;18.986;2023-03-31T08:47:43;99073.31;;;21.62;53.64
41246;BME280;53880;47.526;18.986;2023-03-31T08:50:06;99072.47;;;21.62;53.56
41246;BME280;53880;47.526;18.986;2023-03-31T08:52:34;99067.28;;;21.60;53.55
41246;BME280;53880;47.526;18.986;2023-03-31T08:54:56;99062.78;;;21.61;53.70
41246;BME280;53880;47.526;18.986;2023-03-31T08:57:40;99051.84;;;21.62;53.63
41246;BME280;53880;47.526;18.986;2023-03-31T08:59:59;99053.50;;;21.63;53.35
41246;BME280;53880;47.526;18.986;2023-03-31T09:16:13;99037.16;;;21.58;53.59
41246;BME280;53880;47.526;18.986;2023-03-31T09:18:34;99032.38;;;21.54;53.28
41246;BME280;53880;47.526;18.986;2023-03-31T09:20:56;99032.81;;;21.57;53.55
41246;BME280;53880;47.526;18.986;2023-03-31T09:23:31;99026.06;;;21.61;53.62
41246;BME280;53880;47.526;18.986;2023-03-31T09:25:48;99027.53;;;21.64;53.60
41246;BME280;53880;47.526;18.986;2023-03-31T09:28:14;99020.31;;;21.64;53.65
41246;BME280;53880;47.526;18.986;2023-03-31T09:30:35;99022.38;;;21.62;53.45
41246;BME280;53880;47.526;18.986;2023-03-31T09:33:23;99016.38;;;21.60;53.41
41246;BME280;53880;47.526;18.986;2023-03-31T09:35:33;99009.97;;;21.61;53.36
41246;BME280;53880;47.526;18.986;2023-03-31T09:37:48;99015.97;;;21.63;53.85
41246;BME280;53880;47.526;18.986;2023-03-31T09:40:05;99009.03;;;21.69;54.28
41246;BME280;53880;47.526;18.986;2023-03-31T09:42:26;99009.88;;;21.69;54.14
41246;BME280;53880;47.526;18.986;2023-03-31T09:44:46;98997.13;;;21.71;53.81
41246;BME280;53880;47.526;18.986;2023-03-31T09:47:51;98995.88;;;21.74;53.90
41246;BME280;53880;47.526;18.986;2023-03-31T09:49:47;99003.91;;;21.74;53.83
41246;BME280;53880;47.526;18.986;2023-03-31T09:52:22;99002.06;;;21.74;53.45
41246;BME280;53880;47.526;18.986;2023-03-31T09:54:50;98988.66;;;21.74;54.08
41246;BME280;53880;47.526;18.986;2023-03-31T09:57:28;98989.50;;;21.75;53.45
41246;BME280;53880;47.526;18.986;2023-03-31T09:59:50;98983.31;;;21.74;53.56
41246;BME280;53880;47.526;18.986;2023-03-31T10:02:51;98972.78;;;21.73;53.58
41246;BME280;53880;47.526;18.986;2023-03-31T10:05:20;98969.06;;;21.74;53.66
41246;BME280;53880;47.526;18.986;2023-03-31T10:07:36;98967.22;;;21.74;53.74
41246;BME280;53880;47.526;18.986;2023-03-31T10:09:54;98956.91;;;21.71;53.61
41246;BME280;53880;47.526;18.986;2023-03-31T10:12:16;98953.94;;;21.66;53.17
41246;BME280;53880;47.526;18.986;2023-03-31T10:14:46;98954.72;;;21.60;52.06
41246;BME280;53880;47.526;18.986;2023-03-31T10:17:04;98949.94;;;21.56;51.98
41246;BME280;53880;47.526;18.986;2023-03-31T10:19:27;98955.84;;;21.51;51.65
41246;BME280;53880;47.526;18.986;2023-03-31T10:21:46;98947.38;;;21.48;51.83
41246;BME280;53880;47.526;18.986;2023-03-31T10:24:08;98950.22;;;21.46;52.54
41246;BME280;53880;47.526;18.986;2023-03-31T10:26:28;98945.72;;;21.47;52.93
41246;BME280;53880;47.526;18.986;2023-03-31T10:28:43;98942.66;;;21.50;52.76
41246;BME280;53880;47.526;18.986;2023-03-31T10:31:00;98932.75;;;21.50;52.66
41246;BME280;53880;47.526;18.986;2023-03-31T10:33:24;98927.38;;;21.50;52.89
41246;BME280;53880;47.526;18.986;2023-03-31T10:35:40;98932.94;;;21.49;52.95
41246;BME280;53880;47.526;18.986;2023-03-31T10:37:59;98931.47;;;21.46;52.86
41246;BME280;53880;47.526;18.986;2023-03-31T10:40:21;98926.09;;;21.46;53.07
41246;BME280;53880;47.526;18.986;2023-03-31T10:42:37;98922.78;;;21.44;53.00
41246;BME280;53880;47.526;18.986;2023-03-31T10:45:58;98917.44;;;21.44;53.16
41246;BME280;53880;47.526;18.986;2023-03-31T10:47:49;98922.78;;;21.44;53.27
41246;BME280;53880;47.526;18.986;2023-03-31T10:50:14;98917.44;;;21.44;53.29
41246;BME280;53880;47.526;18.986;2023-03-31T10:52:43;98920.13;;;21.44;53.50
41246;BME280;53880;47.526;18.986;2023-03-31T10:55:00;98918.91;;;21.47;53.42
41246;BME280;53880;47.526;18.986;2023-03-31T10:57:47;98923.25;;;21.48;54.18
41246;BME280;53880;47.526;18.986;2023-03-31T11:00:58;98909.25;;;21.52;54.12
41246;BME280;53880;47.526;18.986;2023-03-31T11:03:13;98909.25;;;21.52;54.49
41246;BME280;53880;47.526;18.986;2023-03-31T11:05:45;98910.94;;;21.53;54.69
41246;BME280;53880;47.526;18.986;2023-03-31T11:11:07;98905.31;;;21.48;55.04
41246;BME280;53880;47.526;18.986;2023-03-31T11:18:16;98899.88;;;21.42;55.07
41246;BME280;53880;47.526;18.986;2023-03-31T11:20:41;98894.94;;;21.39;55.05
41246;BME280;53880;47.526;18.986;2023-03-31T11:26:02;98874.06;;;21.34;54.86
41246;BME280;53880;47.526;18.986;2023-03-31T11:36:33;98840.16;;;21.26;55.38
41246;BME280;53880;47.526;18.986;2023-03-31T11:41:49;98819.50;;;21.20;55.69
41246;BME280;53880;47.526;18.986;2023-03-31T11:44:11;98823.22;;;21.19;55.56
41246;BME280;53880;47.526;18.986;2023-03-31T11:48:56;98808.38;;;21.17;55.75
41246;BME280;53880;47.526;18.986;2023-03-31T11:51:19;98802.19;;;21.16;55.67
41246;BME280;53880;47.526;18.986;2023-03-31T11:53:39;98804.00;;;21.16;55.80
41246;BME280;53880;47.526;18.986;2023-03-31T11:56:00;98805.06;;;21.15;55.77
41246;BME280;53880;47.526;18.986;2023-03-31T11:58:23;98793.50;;;21.14;55.60
41246;BME280;53880;47.526;18.986;2023-03-31T12:00:55;98794.50;;;21.13;55.83
41246;BME280;53880;47.526;18.986;2023-03-31T12:03:30;98792.88;;;21.12;55.82
41246;BME280;53880;47.526;18.986;2023-03-31T12:05:56;98777.00;;;21.11;55.68
41246;BME280;53880;47.526;18.986;2023-03-31T12:08:34;98768.13;;;21.10;55.72
41246;BME280;53880;47.526;18.986;2023-03-31T12:11:04;98776.53;;;21.07;55.64
41246;BME280;53880;47.526;18.986;2023-03-31T12:13:31;98768.50;;;21.07;55.65
41246;BME280;53880;47.526;18.986;2023-03-31T12:18:25;98764.19;;;21.06;55.58
41246;BME280;53880;47.526;18.986;2023-03-31T12:20:55;98754.47;;;21.05;55.79
41246;BME280;53880;47.526;18.986;2023-03-31T12:23:17;98751.81;;;21.05;55.54
41246;BME280;53880;47.526;18.986;2023-03-31T12:25:53;98750.16;;;21.04;55.60
41246;BME280;53880;47.526;18.986;2023-03-31T12:28:11;98742.28;;;21.03;55.69
41246;BME280;53880;47.526;18.986;2023-03-31T12:30:33;98751.34;;;21.02;55.62
41246;BME280;53880;47.526;18.986;2023-03-31T12:33:00;98743.31;;;21.02;55.39
41246;BME280;53880;47.526;18.986;2023-03-31T12:45:29;98732.97;;;20.99;55.67
41246;BME280;53880;47.526;18.986;2023-03-31T12:50:31;98722.44;;;20.97;55.84
41246;BME280;53880;47.526;18.986;2023-03-31T13:05:51;98707.94;;;20.85;51.81
41246;BME280;53880;47.526;18.986;2023-03-31T13:08:09;98704.44;;;20.85;52.09
41246;BME280;53880;47.526;18.986;2023-03-31T13:10:26;98699.25;;;20.83;51.99
41246;BME280;53880;47.526;18.986;2023-03-31T13:13:03;98690.22;;;20.84;51.68
41246;BME280;53880;47.526;18.986;2023-03-31T13:15:19;98675.81;;;20.85;52.04
41246;BME280;53880;47.526;18.986;2023-03-31T13:17:35;98667.19;;;20.90;52.01
41246;BME280;53880;47.526;18.986;2023-03-31T13:19:52;98661.06;;;20.96;52.23
41246;BME280;53880;47.526;18.986;2023-03-31T13:22:31;98661.97;;;21.03;52.17
41246;BME280;53880;47.526;18.986;2023-03-31T13:24:47;98649.25;;;21.11;52.09
41246;BME280;53880;47.526;18.986;2023-03-31T13:27:34;98643.56;;;21.21;52.27
41246;BME280;53880;47.526;18.986;2023-03-31T13:29:49;98643.25;;;21.31;52.00
41246;BME280;53880;47.526;18.986;2023-03-31T13:32:06;98641.41;;;21.38;52.11
41246;BME280;53880;47.526;18.986;2023-03-31T13:34:30;98628.88;;;21.45;51.98
41246;BME280;53880;47.526;18.986;2023-03-31T13:37:42;98624.19;;;21.53;52.15
41246;BME280;53880;47.526;18.986;2023-03-31T13:53:00;98589.22;;;21.68;51.74
41246;BME280;53880;47.526;18.986;2023-03-31T14:06:46;98582.84;;;21.69;51.80
41246;BME280;53880;47.526;18.986;2023-03-31T14:09:06;98572.28;;;21.67;51.97
41246;BME280;53880;47.526;18.986;2023-03-31T14:11:26;98568.59;;;21.68;51.79
41246;BME280;53880;47.526;18.986;2023-03-31T14:13:57;98569.63;;;21.67;52.01
41246;BME280;53880;47.526;18.986;2023-03-31T14:16:14;98566.94;;;21.67;51.94
41246;BME280;53880;47.526;18.986;2023-03-31T14:18:33;98550.22;;;21.65;51.73
41246;BME280;53880;47.526;18.986;2023-03-31T14:37:15;98504.03;;;21.57;51.94
41246;BME280;53880;47.526;18.986;2023-03-31T14:39:39;98508.75;;;21.55;51.86